Terminal Aerodrome Forecast
Issued by NWS

Home | Current Version | Previous Version | Text Only | Print | Product List | Glossary On
Versions: 1 2 3 4 5 6 7 8 9 10 11 12 13 14
000
FTUS46 KPDT 261120
TAFRDM
TAF
KRDM 261120Z 2612/2712 VRB03KT P6SM SCT120
     FM261900 30008G15KT P6SM VCTS SCT060CB BKN090
     FM270000 31008KT P6SM FEW070 SCT100
     FM270600 30007KT P6SM FEW100 SCT150=

USA.gov is the U.S. government's official web portal to all federal, state and local government web resources and services.